sensor_id;sensor_type;location;lat;lon;timestamp;P1;durP1;ratioP1;P2;durP2;ratioP2
12554;SDS011;6343;50.868;4.700;2022-12-31T00:01:17;11.43;;;7.80;;
12554;SDS011;6343;50.868;4.700;2022-12-31T00:03:43;6.80;;;3.80;;
12554;SDS011;6343;50.868;4.700;2022-12-31T00:08:45;5.17;;;3.27;;
12554;SDS011;6343;50.868;4.700;2022-12-31T00:11:12;0.70;;;0.60;;
12554;SDS011;6343;50.868;4.700;2022-12-31T00:13:38;0.50;;;0.50;;
12554;SDS011;6343;50.868;4.700;2022-12-31T00:16:08;1.03;;;0.70;;
12554;SDS011;6343;50.868;4.700;2022-12-31T00:18:35;0.43;;;0.43;;
12554;SDS011;6343;50.868;4.700;2022-12-31T00:21:05;1.00;;;0.80;;
12554;SDS011;6343;50.868;4.700;2022-12-31T00:23:31;2.57;;;1.00;;
12554;SDS011;6343;50.868;4.700;2022-12-31T00:26:01;1.63;;;0.50;;
12554;SDS011;6343;50.868;4.700;2022-12-31T00:28:27;1.23;;;0.80;;
12554;SDS011;6343;50.868;4.700;2022-12-31T00:30:53;0.63;;;0.50;;
12554;SDS011;6343;50.868;4.700;2022-12-31T00:33:19;0.30;;;0.30;;
12554;SDS011;6343;50.868;4.700;2022-12-31T00:35:45;0.93;;;0.63;;
12554;SDS011;6343;50.868;4.700;2022-12-31T00:38:11;0.47;;;0.47;;
12554;SDS011;6343;50.868;4.700;2022-12-31T00:40:37;0.73;;;0.53;;
12554;SDS011;6343;50.868;4.700;2022-12-31T00:43:03;0.43;;;0.43;;
12554;SDS011;6343;50.868;4.700;2022-12-31T00:45:29;0.57;;;0.50;;
12554;SDS011;6343;50.868;4.700;2022-12-31T00:47:56;0.40;;;0.40;;
12554;SDS011;6343;50.868;4.700;2022-12-31T00:50:22;0.50;;;0.47;;
12554;SDS011;6343;50.868;4.700;2022-12-31T00:52:48;0.33;;;0.33;;
12554;SDS011;6343;50.868;4.700;2022-12-31T00:55:14;0.50;;;0.40;;
12554;SDS011;6343;50.868;4.700;2022-12-31T00:57:40;0.40;;;0.40;;
12554;SDS011;6343;50.868;4.700;2022-12-31T01:00:06;0.70;;;0.30;;
12554;SDS011;6343;50.868;4.700;2022-12-31T01:02:33;0.40;;;0.40;;
12554;SDS011;6343;50.868;4.700;2022-12-31T01:04:59;0.47;;;0.47;;
12554;SDS011;6343;50.868;4.700;2022-12-31T01:07:25;0.40;;;0.40;;
12554;SDS011;6343;50.868;4.700;2022-12-31T01:09:51;2.80;;;0.60;;
12554;SDS011;6343;50.868;4.700;2022-12-31T01:12:17;0.37;;;0.37;;
12554;SDS011;6343;50.868;4.700;2022-12-31T01:14:43;1.40;;;0.50;;
12554;SDS011;6343;50.868;4.700;2022-12-31T01:17:09;1.63;;;0.40;;
12554;SDS011;6343;50.868;4.700;2022-12-31T01:19:37;0.40;;;0.40;;
12554;SDS011;6343;50.868;4.700;2022-12-31T01:22:03;0.20;;;0.20;;
12554;SDS011;6343;50.868;4.700;2022-12-31T01:24:29;0.40;;;0.40;;
12554;SDS011;6343;50.868;4.700;2022-12-31T01:26:55;1.50;;;0.60;;
12554;SDS011;6343;50.868;4.700;2022-12-31T01:29:22;0.63;;;0.47;;
12554;SDS011;6343;50.868;4.700;2022-12-31T01:31:48;0.40;;;0.40;;
12554;SDS011;6343;50.868;4.700;2022-12-31T01:34:15;1.43;;;0.50;;
12554;SDS011;6343;50.868;4.700;2022-12-31T01:36:41;1.43;;;0.50;;
12554;SDS011;6343;50.868;4.700;2022-12-31T01:39:07;0.40;;;0.40;;
12554;SDS011;6343;50.868;4.700;2022-12-31T01:41:35;0.90;;;0.60;;
12554;SDS011;6343;50.868;4.700;2022-12-31T01:44:44;0.40;;;0.40;;
12554;SDS011;6343;50.868;4.700;2022-12-31T01:46:52;0.97;;;0.50;;
12554;SDS011;6343;50.868;4.700;2022-12-31T01:49:24;1.80;;;0.50;;
12554;SDS011;6343;50.868;4.700;2022-12-31T01:51:52;0.40;;;0.40;;
12554;SDS011;6343;50.868;4.700;2022-12-31T01:54:20;2.33;;;0.43;;
12554;SDS011;6343;50.868;4.700;2022-12-31T01:56:47;0.40;;;0.40;;
12554;SDS011;6343;50.868;4.700;2022-12-31T01:59:15;0.70;;;0.40;;
12554;SDS011;6343;50.868;4.700;2022-12-31T02:01:42;1.77;;;0.60;;
12554;SDS011;6343;50.868;4.700;2022-12-31T02:04:11;2.90;;;0.67;;
12554;SDS011;6343;50.868;4.700;2022-12-31T02:06:42;0.93;;;0.50;;
12554;SDS011;6343;50.868;4.700;2022-12-31T02:09:09;0.53;;;0.40;;
12554;SDS011;6343;50.868;4.700;2022-12-31T02:11:36;1.07;;;0.50;;
12554;SDS011;6343;50.868;4.700;2022-12-31T02:14:03;0.30;;;0.30;;
12554;SDS011;6343;50.868;4.700;2022-12-31T02:18:59;2.47;;;0.40;;
12554;SDS011;6343;50.868;4.700;2022-12-31T02:31:59;0.67;;;0.27;;
12554;SDS011;6343;50.868;4.700;2022-12-31T02:36:55;0.57;;;0.40;;
12554;SDS011;6343;50.868;4.700;2022-12-31T02:39:23;1.90;;;0.53;;
12554;SDS011;6343;50.868;4.700;2022-12-31T02:41:49;0.67;;;0.50;;
12554;SDS011;6343;50.868;4.700;2022-12-31T02:46:48;1.23;;;0.73;;
12554;SDS011;6343;50.868;4.700;2022-12-31T02:49:19;1.23;;;0.80;;
12554;SDS011;6343;50.868;4.700;2022-12-31T02:51:57;2.03;;;0.47;;
12554;SDS011;6343;50.868;4.700;2022-12-31T02:57:04;2.93;;;0.70;;
12554;SDS011;6343;50.868;4.700;2022-12-31T02:59:32;2.80;;;0.83;;
12554;SDS011;6343;50.868;4.700;2022-12-31T03:02:18;1.70;;;0.57;;
12554;SDS011;6343;50.868;4.700;2022-12-31T03:04:47;1.30;;;0.63;;
12554;SDS011;6343;50.868;4.700;2022-12-31T03:07:24;1.47;;;0.60;;
12554;SDS011;6343;50.868;4.700;2022-12-31T03:09:51;2.20;;;0.73;;
12554;SDS011;6343;50.868;4.700;2022-12-31T03:12:17;0.97;;;0.80;;
12554;SDS011;6343;50.868;4.700;2022-12-31T03:15:03;3.83;;;0.80;;
12554;SDS011;6343;50.868;4.700;2022-12-31T03:17:31;4.20;;;0.87;;
12554;SDS011;6343;50.868;4.700;2022-12-31T03:19:57;2.33;;;0.87;;
12554;SDS011;6343;50.868;4.700;2022-12-31T03:22:41;3.13;;;0.80;;
12554;SDS011;6343;50.868;4.700;2022-12-31T03:25:09;3.37;;;0.80;;
12554;SDS011;6343;50.868;4.700;2022-12-31T03:27:54;2.70;;;0.60;;
12554;SDS011;6343;50.868;4.700;2022-12-31T03:30:21;2.30;;;0.60;;
12554;SDS011;6343;50.868;4.700;2022-12-31T03:32:48;5.30;;;1.07;;
12554;SDS011;6343;50.868;4.700;2022-12-31T03:35:15;1.10;;;0.50;;
12554;SDS011;6343;50.868;4.700;2022-12-31T03:37:42;3.90;;;1.03;;
12554;SDS011;6343;50.868;4.700;2022-12-31T03:40:09;0.87;;;0.60;;
12554;SDS011;6343;50.868;4.700;2022-12-31T03:42:35;1.83;;;0.67;;
12554;SDS011;6343;50.868;4.700;2022-12-31T03:45:02;1.77;;;0.80;;
12554;SDS011;6343;50.868;4.700;2022-12-31T03:47:28;4.40;;;0.80;;
12554;SDS011;6343;50.868;4.700;2022-12-31T03:49:54;1.40;;;0.70;;
12554;SDS011;6343;50.868;4.700;2022-12-31T03:52:20;2.77;;;0.83;;
12554;SDS011;6343;50.868;4.700;2022-12-31T03:54:46;3.07;;;0.73;;
12554;SDS011;6343;50.868;4.700;2022-12-31T03:57:12;1.97;;;0.83;;
12554;SDS011;6343;50.868;4.700;2022-12-31T03:59:39;2.50;;;0.63;;
12554;SDS011;6343;50.868;4.700;2022-12-31T04:02:05;2.00;;;0.60;;
12554;SDS011;6343;50.868;4.700;2022-12-31T04:04:31;2.67;;;0.77;;
12554;SDS011;6343;50.868;4.700;2022-12-31T04:06:57;1.93;;;0.70;;
12554;SDS011;6343;50.868;4.700;2022-12-31T04:09:23;2.37;;;0.80;;
12554;SDS011;6343;50.868;4.700;2022-12-31T04:11:50;1.60;;;0.70;;
12554;SDS011;6343;50.868;4.700;2022-12-31T04:14:16;3.53;;;0.90;;
12554;SDS011;6343;50.868;4.700;2022-12-31T04:16:43;1.67;;;0.50;;
12554;SDS011;6343;50.868;4.700;2022-12-31T04:19:09;3.40;;;0.80;;
12554;SDS011;6343;50.868;4.700;2022-12-31T04:21:35;1.70;;;1.10;;
12554;SDS011;6343;50.868;4.700;2022-12-31T04:24:01;1.70;;;0.70;;
12554;SDS011;6343;50.868;4.700;2022-12-31T04:26:28;1.67;;;0.70;;
12554;SDS011;6343;50.868;4.700;2022-12-31T04:28:54;3.27;;;0.60;;
12554;SDS011;6343;50.868;4.700;2022-12-31T04:31:20;2.40;;;0.80;;
12554;SDS011;6343;50.868;4.700;2022-12-31T04:33:46;1.93;;;0.80;;
12554;SDS011;6343;50.868;4.700;2022-12-31T04:36:12;1.60;;;1.00;;
12554;SDS011;6343;50.868;4.700;2022-12-31T04:38:38;2.43;;;0.70;;
12554;SDS011;6343;50.868;4.700;2022-12-31T04:41:04;3.23;;;0.73;;
12554;SDS011;6343;50.868;4.700;2022-12-31T04:43:50;2.23;;;0.63;;
12554;SDS011;6343;50.868;4.700;2022-12-31T04:46:18;1.40;;;0.80;;
12554;SDS011;6343;50.868;4.700;2022-12-31T04:48:44;5.07;;;0.80;;
12554;SDS011;6343;50.868;4.700;2022-12-31T04:51:11;3.23;;;0.77;;
12554;SDS011;6343;50.868;4.700;2022-12-31T04:53:37;1.07;;;0.67;;
12554;SDS011;6343;50.868;4.700;2022-12-31T04:56:03;2.90;;;0.70;;
12554;SDS011;6343;50.868;4.700;2022-12-31T04:58:30;3.07;;;0.80;;
12554;SDS011;6343;50.868;4.700;2022-12-31T05:00:56;0.83;;;0.60;;
12554;SDS011;6343;50.868;4.700;2022-12-31T05:03:22;2.60;;;0.60;;
12554;SDS011;6343;50.868;4.700;2022-12-31T05:05:49;2.40;;;0.60;;
12554;SDS011;6343;50.868;4.700;2022-12-31T05:08:16;2.60;;;0.83;;
12554;SDS011;6343;50.868;4.700;2022-12-31T05:10:43;2.80;;;0.60;;
12554;SDS011;6343;50.868;4.700;2022-12-31T05:13:09;1.50;;;0.67;;
12554;SDS011;6343;50.868;4.700;2022-12-31T05:15:36;2.33;;;0.90;;
12554;SDS011;6343;50.868;4.700;2022-12-31T05:18:02;1.93;;;0.70;;
12554;SDS011;6343;50.868;4.700;2022-12-31T05:20:28;3.73;;;0.93;;
12554;SDS011;6343;50.868;4.700;2022-12-31T05:22:54;1.93;;;0.70;;
12554;SDS011;6343;50.868;4.700;2022-12-31T05:25:20;3.63;;;0.80;;
12554;SDS011;6343;50.868;4.700;2022-12-31T05:27:46;1.67;;;0.77;;
12554;SDS011;6343;50.868;4.700;2022-12-31T05:30:13;4.17;;;0.80;;
12554;SDS011;6343;50.868;4.700;2022-12-31T05:32:39;2.23;;;0.70;;
12554;SDS011;6343;50.868;4.700;2022-12-31T05:35:06;1.37;;;0.50;;
12554;SDS011;6343;50.868;4.700;2022-12-31T05:37:32;1.30;;;0.60;;
12554;SDS011;6343;50.868;4.700;2022-12-31T05:39:58;1.40;;;0.73;;
12554;SDS011;6343;50.868;4.700;2022-12-31T05:42:25;2.07;;;0.80;;
12554;SDS011;6343;50.868;4.700;2022-12-31T05:44:51;2.50;;;0.87;;
12554;SDS011;6343;50.868;4.700;2022-12-31T05:47:17;2.23;;;1.03;;
12554;SDS011;6343;50.868;4.700;2022-12-31T05:49:43;3.07;;;0.80;;
12554;SDS011;6343;50.868;4.700;2022-12-31T05:52:09;3.20;;;0.80;;
12554;SDS011;6343;50.868;4.700;2022-12-31T05:54:35;3.17;;;0.70;;
12554;SDS011;6343;50.868;4.700;2022-12-31T05:57:02;4.13;;;0.90;;
12554;SDS011;6343;50.868;4.700;2022-12-31T05:59:28;2.67;;;0.60;;
12554;SDS011;6343;50.868;4.700;2022-12-31T06:01:55;3.43;;;1.00;;
12554;SDS011;6343;50.868;4.700;2022-12-31T06:04:21;2.30;;;0.70;;
12554;SDS011;6343;50.868;4.700;2022-12-31T06:06:47;2.43;;;0.80;;
12554;SDS011;6343;50.868;4.700;2022-12-31T06:09:14;2.40;;;0.70;;
12554;SDS011;6343;50.868;4.700;2022-12-31T06:11:40;3.53;;;1.17;;
12554;SDS011;6343;50.868;4.700;2022-12-31T06:14:06;4.90;;;0.70;;
12554;SDS011;6343;50.868;4.700;2022-12-31T06:16:32;2.00;;;0.50;;
12554;SDS011;6343;50.868;4.700;2022-12-31T06:18:59;4.17;;;1.13;;
12554;SDS011;6343;50.868;4.700;2022-12-31T06:21:28;2.23;;;0.80;;
12554;SDS011;6343;50.868;4.700;2022-12-31T06:23:54;2.40;;;1.03;;
12554;SDS011;6343;50.868;4.700;2022-12-31T06:26:20;5.17;;;0.97;;
12554;SDS011;6343;50.868;4.700;2022-12-31T06:28:46;2.40;;;1.00;;
12554;SDS011;6343;50.868;4.700;2022-12-31T06:31:13;4.40;;;0.97;;
12554;SDS011;6343;50.868;4.700;2022-12-31T06:33:39;3.23;;;1.20;;
12554;SDS011;6343;50.868;4.700;2022-12-31T06:36:06;3.60;;;0.93;;
12554;SDS011;6343;50.868;4.700;2022-12-31T06:38:35;3.77;;;1.00;;
12554;SDS011;6343;50.868;4.700;2022-12-31T06:41:05;13.60;;;1.10;;
12554;SDS011;6343;50.868;4.700;2022-12-31T06:43:32;2.77;;;0.90;;
12554;SDS011;6343;50.868;4.700;2022-12-31T06:46:02;2.73;;;1.00;;
12554;SDS011;6343;50.868;4.700;2022-12-31T06:48:28;5.70;;;0.97;;
12554;SDS011;6343;50.868;4.700;2022-12-31T06:50:54;3.00;;;0.80;;
12554;SDS011;6343;50.868;4.700;2022-12-31T06:53:20;4.03;;;0.87;;
12554;SDS011;6343;50.868;4.700;2022-12-31T06:55:47;3.70;;;1.03;;
12554;SDS011;6343;50.868;4.700;2022-12-31T06:58:14;2.57;;;0.80;;
12554;SDS011;6343;50.868;4.700;2022-12-31T07:00:41;3.27;;;1.10;;
12554;SDS011;6343;50.868;4.700;2022-12-31T07:03:17;3.30;;;1.00;;
12554;SDS011;6343;50.868;4.700;2022-12-31T07:05:46;1.20;;;0.80;;
12554;SDS011;6343;50.868;4.700;2022-12-31T07:10:59;1.63;;;0.77;;
12554;SDS011;6343;50.868;4.700;2022-12-31T07:13:35;2.87;;;0.90;;
12554;SDS011;6343;50.868;4.700;2022-12-31T07:18:53;4.37;;;1.20;;
12554;SDS011;6343;50.868;4.700;2022-12-31T07:21:28;2.17;;;0.80;;
12554;SDS011;6343;50.868;4.700;2022-12-31T07:23:56;4.10;;;0.90;;
12554;SDS011;6343;50.868;4.700;2022-12-31T07:31:30;2.10;;;1.13;;
12554;SDS011;6343;50.868;4.700;2022-12-31T07:33:59;1.77;;;0.90;;
12554;SDS011;6343;50.868;4.700;2022-12-31T07:39:09;5.40;;;1.17;;
12554;SDS011;6343;50.868;4.700;2022-12-31T07:41:53;2.00;;;0.80;;
12554;SDS011;6343;50.868;4.700;2022-12-31T07:49:18;3.23;;;0.70;;
12554;SDS011;6343;50.868;4.700;2022-12-31T07:51:44;1.70;;;0.70;;
12554;SDS011;6343;50.868;4.700;2022-12-31T07:54:10;4.43;;;0.70;;
12554;SDS011;6343;50.868;4.700;2022-12-31T07:56:37;3.23;;;0.77;;
12554;SDS011;6343;50.868;4.700;2022-12-31T08:01:32;4.13;;;1.23;;
12554;SDS011;6343;50.868;4.700;2022-12-31T08:04:04;3.17;;;1.03;;
12554;SDS011;6343;50.868;4.700;2022-12-31T08:12:02;5.10;;;1.00;;
12554;SDS011;6343;50.868;4.700;2022-12-31T08:14:28;3.77;;;0.83;;
12554;SDS011;6343;50.868;4.700;2022-12-31T08:16:55;3.77;;;1.07;;
12554;SDS011;6343;50.868;4.700;2022-12-31T08:41:03;3.37;;;1.20;;
12554;SDS011;6343;50.868;4.700;2022-12-31T08:43:37;6.07;;;1.20;;
12554;SDS011;6343;50.868;4.700;2022-12-31T08:46:07;4.17;;;1.17;;
12554;SDS011;6343;50.868;4.700;2022-12-31T08:48:41;6.50;;;1.53;;
12554;SDS011;6343;50.868;4.700;2022-12-31T08:51:16;2.97;;;1.10;;
12554;SDS011;6343;50.868;4.700;2022-12-31T08:53:43;3.97;;;1.37;;
12554;SDS011;6343;50.868;4.700;2022-12-31T09:04:21;4.63;;;1.00;;
12554;SDS011;6343;50.868;4.700;2022-12-31T09:07:00;3.40;;;1.00;;
12554;SDS011;6343;50.868;4.700;2022-12-31T09:10:28;4.80;;;1.50;;
12554;SDS011;6343;50.868;4.700;2022-12-31T09:12:36;3.77;;;1.20;;
12554;SDS011;6343;50.868;4.700;2022-12-31T09:15:05;3.70;;;1.60;;
12554;SDS011;6343;50.868;4.700;2022-12-31T09:20:03;6.93;;;1.60;;
12554;SDS011;6343;50.868;4.700;2022-12-31T09:22:30;6.47;;;1.37;;
12554;SDS011;6343;50.868;4.700;2022-12-31T09:24:56;5.33;;;1.40;;
12554;SDS011;6343;50.868;4.700;2022-12-31T09:28:25;6.57;;;1.17;;
12554;SDS011;6343;50.868;4.700;2022-12-31T09:30:27;5.00;;;1.33;;
12554;SDS011;6343;50.868;4.700;2022-12-31T09:37:55;4.40;;;1.50;;
12554;SDS011;6343;50.868;4.700;2022-12-31T09:48:47;5.30;;;1.37;;
12554;SDS011;6343;50.868;4.700;2022-12-31T09:56:31;4.13;;;1.33;;
12554;SDS011;6343;50.868;4.700;2022-12-31T09:59:12;4.23;;;1.30;;
12554;SDS011;6343;50.868;4.700;2022-12-31T10:17:17;5.07;;;1.40;;
12554;SDS011;6343;50.868;4.700;2022-12-31T10:27:46;8.00;;;1.30;;
12554;SDS011;6343;50.868;4.700;2022-12-31T10:30:16;5.63;;;1.50;;
12554;SDS011;6343;50.868;4.700;2022-12-31T10:43:16;4.17;;;1.43;;
12554;SDS011;6343;50.868;4.700;2022-12-31T11:01:41;3.27;;;1.17;;
12554;SDS011;6343;50.868;4.700;2022-12-31T11:18:46;6.90;;;1.30;;
12554;SDS011;6343;50.868;4.700;2022-12-31T11:34:18;5.77;;;1.60;;
12554;SDS011;6343;50.868;4.700;2022-12-31T11:42:20;7.50;;;1.47;;
12554;SDS011;6343;50.868;4.700;2022-12-31T11:45:01;4.20;;;1.37;;
12554;SDS011;6343;50.868;4.700;2022-12-31T11:50:09;7.90;;;1.63;;
12554;SDS011;6343;50.868;4.700;2022-12-31T11:52:43;5.20;;;1.60;;
12554;SDS011;6343;50.868;4.700;2022-12-31T11:57:39;4.17;;;1.30;;
12554;SDS011;6343;50.868;4.700;2022-12-31T12:02:45;5.07;;;1.47;;
12554;SDS011;6343;50.868;4.700;2022-12-31T12:05:14;3.17;;;1.70;;
12554;SDS011;6343;50.868;4.700;2022-12-31T12:07:40;3.07;;;1.20;;
12554;SDS011;6343;50.868;4.700;2022-12-31T12:10:18;4.27;;;1.60;;
12554;SDS011;6343;50.868;4.700;2022-12-31T12:12:47;2.47;;;1.40;;
12554;SDS011;6343;50.868;4.700;2022-12-31T12:15:17;3.17;;;1.50;;
12554;SDS011;6343;50.868;4.700;2022-12-31T12:17:47;6.00;;;1.60;;
12554;SDS011;6343;50.868;4.700;2022-12-31T12:20:15;5.87;;;1.70;;
12554;SDS011;6343;50.868;4.700;2022-12-31T12:22:49;9.40;;;1.70;;
12554;SDS011;6343;50.868;4.700;2022-12-31T12:25:18;3.90;;;1.60;;
12554;SDS011;6343;50.868;4.700;2022-12-31T12:27:44;5.97;;;1.70;;
12554;SDS011;6343;50.868;4.700;2022-12-31T12:30:36;5.97;;;1.50;;
12554;SDS011;6343;50.868;4.700;2022-12-31T12:32:58;4.97;;;1.50;;
12554;SDS011;6343;50.868;4.700;2022-12-31T12:35:26;4.90;;;1.80;;
12554;SDS011;6343;50.868;4.700;2022-12-31T12:38:03;5.87;;;1.60;;
12554;SDS011;6343;50.868;4.700;2022-12-31T12:40:30;4.77;;;1.37;;
12554;SDS011;6343;50.868;4.700;2022-12-31T12:42:56;7.03;;;2.50;;
12554;SDS011;6343;50.868;4.700;2022-12-31T12:45:24;11.27;;;2.27;;
12554;SDS011;6343;50.868;4.700;2022-12-31T12:47:55;6.70;;;2.50;;
12554;SDS011;6343;50.868;4.700;2022-12-31T12:50:23;16.03;;;2.80;;
12554;SDS011;6343;50.868;4.700;2022-12-31T12:55:29;7.30;;;2.20;;
12554;SDS011;6343;50.868;4.700;2022-12-31T12:58:13;5.97;;;2.07;;
12554;SDS011;6343;50.868;4.700;2022-12-31T13:00:45;5.73;;;1.80;;
12554;SDS011;6343;50.868;4.700;2022-12-31T13:06:04;5.53;;;2.07;;
12554;SDS011;6343;50.868;4.700;2022-12-31T13:11:13;5.50;;;2.10;;
12554;SDS011;6343;50.868;4.700;2022-12-31T13:28:58;8.43;;;2.20;;
12554;SDS011;6343;50.868;4.700;2022-12-31T13:31:36;4.97;;;1.83;;
12554;SDS011;6343;50.868;4.700;2022-12-31T13:34:20;7.77;;;1.90;;
12554;SDS011;6343;50.868;4.700;2022-12-31T13:36:47;7.80;;;1.73;;
12554;SDS011;6343;50.868;4.700;2022-12-31T13:39:16;7.60;;;2.20;;
12554;SDS011;6343;50.868;4.700;2022-12-31T13:42:02;5.40;;;1.80;;
12554;SDS011;6343;50.868;4.700;2022-12-31T13:44:32;11.13;;;1.90;;
12554;SDS011;6343;50.868;4.700;2022-12-31T13:52:28;6.03;;;2.00;;
12554;SDS011;6343;50.868;4.700;2022-12-31T14:00:22;6.67;;;1.77;;
12554;SDS011;6343;50.868;4.700;2022-12-31T14:02:52;5.83;;;1.70;;
12554;SDS011;6343;50.868;4.700;2022-12-31T14:08:12;7.13;;;2.00;;
12554;SDS011;6343;50.868;4.700;2022-12-31T14:13:58;3.27;;;1.67;;
12554;SDS011;6343;50.868;4.700;2022-12-31T14:16:44;2.90;;;1.30;;
12554;SDS011;6343;50.868;4.700;2022-12-31T14:26:43;8.03;;;2.30;;
12554;SDS011;6343;50.868;4.700;2022-12-31T14:36:57;7.07;;;2.00;;
12554;SDS011;6343;50.868;4.700;2022-12-31T14:39:28;4.87;;;1.80;;
12554;SDS011;6343;50.868;4.700;2022-12-31T14:44:44;5.73;;;2.07;;
12554;SDS011;6343;50.868;4.700;2022-12-31T14:47:26;5.33;;;1.77;;
12554;SDS011;6343;50.868;4.700;2022-12-31T14:50:02;8.40;;;2.23;;
12554;SDS011;6343;50.868;4.700;2022-12-31T14:52:34;9.83;;;2.10;;
12554;SDS011;6343;50.868;4.700;2022-12-31T14:57:41;4.37;;;1.83;;
12554;SDS011;6343;50.868;4.700;2022-12-31T15:00:21;5.00;;;1.80;;
12554;SDS011;6343;50.868;4.700;2022-12-31T15:02:48;7.17;;;1.80;;
12554;SDS011;6343;50.868;4.700;2022-12-31T15:05:17;5.90;;;1.50;;
12554;SDS011;6343;50.868;4.700;2022-12-31T15:18:00;5.57;;;1.90;;
12554;SDS011;6343;50.868;4.700;2022-12-31T15:23:21;5.13;;;1.67;;
12554;SDS011;6343;50.868;4.700;2022-12-31T15:25:48;5.23;;;1.77;;
12554;SDS011;6343;50.868;4.700;2022-12-31T15:28:25;5.77;;;1.40;;
12554;SDS011;6343;50.868;4.700;2022-12-31T15:30:54;3.50;;;1.40;;
12554;SDS011;6343;50.868;4.700;2022-12-31T15:35:50;2.97;;;1.70;;
12554;SDS011;6343;50.868;4.700;2022-12-31T15:45:54;5.90;;;1.97;;
12554;SDS011;6343;50.868;4.700;2022-12-31T15:48:39;3.57;;;1.93;;
12554;SDS011;6343;50.868;4.700;2022-12-31T15:51:07;8.47;;;2.03;;
12554;SDS011;6343;50.868;4.700;2022-12-31T15:53:40;5.10;;;1.90;;
12554;SDS011;6343;50.868;4.700;2022-12-31T15:56:11;8.63;;;1.90;;
12554;SDS011;6343;50.868;4.700;2022-12-31T15:58:42;4.47;;;1.60;;
12554;SDS011;6343;50.868;4.700;2022-12-31T16:01:13;4.50;;;1.93;;
12554;SDS011;6343;50.868;4.700;2022-12-31T16:03:41;6.60;;;2.00;;
12554;SDS011;6343;50.868;4.700;2022-12-31T16:06:12;3.33;;;1.50;;
12554;SDS011;6343;50.868;4.700;2022-12-31T16:08:39;2.40;;;1.57;;
12554;SDS011;6343;50.868;4.700;2022-12-31T16:11:06;3.27;;;1.43;;
12554;SDS011;6343;50.868;4.700;2022-12-31T16:13:34;7.30;;;1.77;;
12554;SDS011;6343;50.868;4.700;2022-12-31T16:16:05;3.07;;;1.67;;
12554;SDS011;6343;50.868;4.700;2022-12-31T16:18:38;7.57;;;2.20;;
12554;SDS011;6343;50.868;4.700;2022-12-31T16:21:05;8.83;;;1.73;;
12554;SDS011;6343;50.868;4.700;2022-12-31T16:23:31;4.33;;;1.70;;
12554;SDS011;6343;50.868;4.700;2022-12-31T16:25:59;6.67;;;1.80;;
12554;SDS011;6343;50.868;4.700;2022-12-31T16:28:29;4.90;;;1.70;;
12554;SDS011;6343;50.868;4.700;2022-12-31T16:31:00;5.77;;;1.67;;
12554;SDS011;6343;50.868;4.700;2022-12-31T16:33:27;5.03;;;1.90;;
12554;SDS011;6343;50.868;4.700;2022-12-31T16:35:58;9.10;;;2.40;;
12554;SDS011;6343;50.868;4.700;2022-12-31T16:38:34;10.07;;;2.17;;
12554;SDS011;6343;50.868;4.700;2022-12-31T16:46:06;3.07;;;1.67;;
12554;SDS011;6343;50.868;4.700;2022-12-31T16:48:34;8.60;;;2.17;;
12554;SDS011;6343;50.868;4.700;2022-12-31T16:51:00;3.87;;;1.63;;
12554;SDS011;6343;50.868;4.700;2022-12-31T16:53:26;4.17;;;1.80;;
12554;SDS011;6343;50.868;4.700;2022-12-31T16:55:54;4.57;;;1.73;;
12554;SDS011;6343;50.868;4.700;2022-12-31T16:58:24;4.40;;;1.80;;
12554;SDS011;6343;50.868;4.700;2022-12-31T17:00:52;6.53;;;1.73;;
12554;SDS011;6343;50.868;4.700;2022-12-31T17:03:21;6.33;;;1.60;;
12554;SDS011;6343;50.868;4.700;2022-12-31T17:08:44;5.80;;;1.93;;
12554;SDS011;6343;50.868;4.700;2022-12-31T17:11:53;7.57;;;2.03;;
12554;SDS011;6343;50.868;4.700;2022-12-31T17:14:05;5.03;;;1.80;;
12554;SDS011;6343;50.868;4.700;2022-12-31T17:16:37;7.73;;;1.90;;
12554;SDS011;6343;50.868;4.700;2022-12-31T17:19:05;6.10;;;1.93;;
12554;SDS011;6343;50.868;4.700;2022-12-31T17:21:31;7.77;;;1.73;;
12554;SDS011;6343;50.868;4.700;2022-12-31T17:24:04;7.33;;;1.80;;
12554;SDS011;6343;50.868;4.700;2022-12-31T17:26:31;10.57;;;1.97;;
12554;SDS011;6343;50.868;4.700;2022-12-31T17:28:58;10.87;;;2.90;;
12554;SDS011;6343;50.868;4.700;2022-12-31T17:31:38;9.53;;;2.30;;
12554;SDS011;6343;50.868;4.700;2022-12-31T17:36:31;4.27;;;1.90;;
12554;SDS011;6343;50.868;4.700;2022-12-31T17:39:14;6.33;;;1.93;;
12554;SDS011;6343;50.868;4.700;2022-12-31T17:41:42;4.87;;;1.90;;
12554;SDS011;6343;50.868;4.700;2022-12-31T17:44:10;6.73;;;1.80;;
12554;SDS011;6343;50.868;4.700;2022-12-31T17:46:38;5.53;;;2.10;;
12554;SDS011;6343;50.868;4.700;2022-12-31T17:49:04;6.27;;;2.23;;
12554;SDS011;6343;50.868;4.700;2022-12-31T17:51:30;7.60;;;1.87;;
12554;SDS011;6343;50.868;4.700;2022-12-31T17:53:58;7.17;;;2.00;;
12554;SDS011;6343;50.868;4.700;2022-12-31T17:56:24;3.97;;;1.70;;
12554;SDS011;6343;50.868;4.700;2022-12-31T17:58:51;8.10;;;2.17;;
12554;SDS011;6343;50.868;4.700;2022-12-31T18:01:19;9.80;;;2.20;;
12554;SDS011;6343;50.868;4.700;2022-12-31T18:03:45;12.23;;;2.20;;
12554;SDS011;6343;50.868;4.700;2022-12-31T18:06:14;5.10;;;2.30;;
12554;SDS011;6343;50.868;4.700;2022-12-31T18:08:40;6.47;;;2.00;;
12554;SDS011;6343;50.868;4.700;2022-12-31T18:11:10;8.27;;;2.23;;
12554;SDS011;6343;50.868;4.700;2022-12-31T18:13:36;9.20;;;2.63;;
12554;SDS011;6343;50.868;4.700;2022-12-31T18:16:03;6.20;;;2.10;;
12554;SDS011;6343;50.868;4.700;2022-12-31T18:18:30;7.73;;;2.23;;
12554;SDS011;6343;50.868;4.700;2022-12-31T18:21:01;6.97;;;1.90;;
12554;SDS011;6343;50.868;4.700;2022-12-31T18:23:29;6.47;;;2.30;;
12554;SDS011;6343;50.868;4.700;2022-12-31T18:25:57;12.43;;;2.77;;
12554;SDS011;6343;50.868;4.700;2022-12-31T18:28:23;11.60;;;2.77;;
12554;SDS011;6343;50.868;4.700;2022-12-31T18:30:49;8.27;;;2.70;;
12554;SDS011;6343;50.868;4.700;2022-12-31T18:33:16;6.20;;;2.00;;
12554;SDS011;6343;50.868;4.700;2022-12-31T18:35:46;10.80;;;3.27;;
12554;SDS011;6343;50.868;4.700;2022-12-31T18:38:13;5.77;;;2.20;;
12554;SDS011;6343;50.868;4.700;2022-12-31T18:40:40;8.97;;;2.30;;
12554;SDS011;6343;50.868;4.700;2022-12-31T18:43:12;8.80;;;2.50;;
12554;SDS011;6343;50.868;4.700;2022-12-31T18:45:39;14.80;;;2.60;;
12554;SDS011;6343;50.868;4.700;2022-12-31T18:48:05;5.00;;;2.00;;
12554;SDS011;6343;50.868;4.700;2022-12-31T18:50:31;8.77;;;2.10;;
12554;SDS011;6343;50.868;4.700;2022-12-31T18:52:58;4.90;;;1.77;;
12554;SDS011;6343;50.868;4.700;2022-12-31T18:55:25;9.67;;;2.17;;
12554;SDS011;6343;50.868;4.700;2022-12-31T18:57:52;7.03;;;2.10;;
12554;SDS011;6343;50.868;4.700;2022-12-31T19:00:18;5.27;;;2.00;;
12554;SDS011;6343;50.868;4.700;2022-12-31T19:02:44;8.90;;;2.43;;
12554;SDS011;6343;50.868;4.700;2022-12-31T19:05:26;7.80;;;2.30;;
12554;SDS011;6343;50.868;4.700;2022-12-31T19:07:53;6.87;;;2.37;;
12554;SDS011;6343;50.868;4.700;2022-12-31T19:10:19;12.07;;;2.10;;
12554;SDS011;6343;50.868;4.700;2022-12-31T19:12:46;7.00;;;2.20;;
12554;SDS011;6343;50.868;4.700;2022-12-31T19:15:23;6.70;;;2.03;;
12554;SDS011;6343;50.868;4.700;2022-12-31T19:17:49;5.77;;;2.27;;
12554;SDS011;6343;50.868;4.700;2022-12-31T19:20:15;5.37;;;2.37;;
12554;SDS011;6343;50.868;4.700;2022-12-31T19:22:42;9.23;;;2.30;;
12554;SDS011;6343;50.868;4.700;2022-12-31T19:25:19;4.67;;;1.70;;
12554;SDS011;6343;50.868;4.700;2022-12-31T19:27:45;8.00;;;2.17;;
12554;SDS011;6343;50.868;4.700;2022-12-31T19:30:32;10.57;;;2.80;;
12554;SDS011;6343;50.868;4.700;2022-12-31T19:32:58;5.80;;;2.57;;
12554;SDS011;6343;50.868;4.700;2022-12-31T19:35:25;10.93;;;2.87;;
12554;SDS011;6343;50.868;4.700;2022-12-31T19:37:52;11.13;;;2.73;;
12554;SDS011;6343;50.868;4.700;2022-12-31T19:40:23;5.20;;;2.13;;
12554;SDS011;6343;50.868;4.700;2022-12-31T19:42:51;9.77;;;2.60;;
12554;SDS011;6343;50.868;4.700;2022-12-31T19:45:24;15.40;;;2.70;;
12554;SDS011;6343;50.868;4.700;2022-12-31T19:47:51;8.80;;;2.93;;
12554;SDS011;6343;50.868;4.700;2022-12-31T19:50:21;7.00;;;2.23;;
12554;SDS011;6343;50.868;4.700;2022-12-31T19:52:49;8.83;;;2.30;;
12554;SDS011;6343;50.868;4.700;2022-12-31T19:55:17;12.17;;;3.10;;
12554;SDS011;6343;50.868;4.700;2022-12-31T19:57:44;4.07;;;2.33;;